| time (UTC) | temp F | wind direction | speed knots | gust knots | rain 1hr in | rain 24hr in | rain mn in | humidity % | barometer mb |
| 20260906220927 | 102 | 104 | 0.0 | 1.7 | 0.00 | 0.00 | 0.00 | 30 | 1013.8 |
| 20260906215026 | 103 | 137 | 0.9 | 3.5 | 0.00 | 0.00 | 0.00 | 31 | 1013.7 |
| 20260906213127 | 102 | 152 | 0.9 | 1.7 | 0.00 | 0.00 | 0.00 | 33 | 1013.8 |
| 20260906213026 | 101 | 347 | 0.0 | 0.9 | 0.00 | 0.00 | 0.00 | 34 | 1013.8 |
| 20260906211128 | 101 | 139 | 2.6 | 6.1 | 0.00 | 0.00 | 0.00 | 34 | 1014.1 |
| 20260906210128 | 101 | 166 | 1.7 | 4.3 | 0.00 | 0.00 | 0.00 | 32 | 1014.3 |
| 20260906205226 | 101 | 67 | 0.9 | 2.6 | 0.00 | 0.00 | 0.00 | 37 | 1014.5 |
| 20260906204225 | 102 | 106 | 0.0 | 1.7 | 0.00 | 0.00 | 0.00 | 32 | 1014.6 |
| 20260906203227 | 102 | 91 | 1.7 | 2.6 | 0.00 | 0.00 | 0.00 | 38 | 1014.8 |
| 20260906202227 | 101 | 97 | 1.7 | 2.6 | 0.00 | 0.00 | 0.00 | 38 | 1014.8 |
| 20260906201226 | 100 | 66 | 0.9 | 2.6 | 0.00 | 0.00 | 0.00 | 39 | 1014.8 |
| 20260906200226 | 99 | 128 | 1.7 | 3.5 | 0.00 | 0.00 | 0.00 | 35 | 1015.0 |
| 20260906195227 | 99 | 134 | 3.5 | 5.2 | 0.00 | 0.00 | 0.00 | 35 | 1015.4 |
| 20260906193426 | 100 | 5 | 0.0 | 0.9 | 0.00 | 0.00 | 0.00 | 42 | 1015.4 |
| 20260906192426 | 100 | 137 | 1.7 | 2.6 | 0.00 | 0.00 | 0.00 | 38 | 1015.7 |
| 20260906191427 | 100 | 98 | 1.7 | 5.2 | 0.00 | 0.00 | 0.00 | 42 | 1015.6 |
| 20260906190526 | 100 | 34 | 0.9 | 2.6 | 0.00 | 0.00 | 0.00 | 42 | 1015.7 |
| 20260906185625 | 99 | 61 | 2.6 | 5.2 | 0.00 | 0.00 | 0.00 | 38 | 1015.8 |
| 20260906184627 | 99 | 67 | 0.9 | 1.7 | 0.00 | 0.00 | 0.00 | 41 | 1015.9 |
| 20260906183527 | 99 | 105 | 0.9 | 2.6 | 0.00 | 0.00 | 0.00 | 40 | 1016.1 |
| 20260906181625 | 99 | 135 | 1.7 | 3.5 | 0.00 | 0.00 | 0.00 | 45 | 1016.4 |
| 20260906180627 | 98 | 88 | 0.9 | 2.6 | 0.00 | 0.00 | 0.00 | 39 | 1016.5 |
| 20260906175725 | 100 | 117 | 3.5 | 6.1 | 0.00 | 0.00 | 0.00 | 44 | 1016.6 |
| 20260906174726 | 99 | 67 | 0.9 | 2.6 | 0.00 | 0.00 | 0.00 | 47 | 1016.9 |
| 20260906173824 | 98 | 81 | 0.9 | 1.7 | 0.00 | 0.00 | 0.00 | 45 | 1017.0 |
| 20260906172825 | 98 | 140 | 0.0 | 3.5 | 0.00 | 0.00 | 0.00 | 44 | 1017.0 |
| 20260906171825 | 99 | 84 | 1.7 | 3.5 | 0.00 | 0.00 | 0.00 | 47 | 1017.1 |
| 20260906170827 | 98 | 87 | 1.7 | 2.6 | 0.00 | 0.00 | 0.00 | 50 | 1017.2 |
| 20260906165827 | 98 | 124 | 0.9 | 1.7 | 0.00 | 0.00 | 0.00 | 47 | 1017.4 |
| 20260906164925 | 98 | 74 | 1.7 | 4.3 | 0.00 | 0.00 | 0.00 | 47 | 1017.2 |
| 20260906163925 | 97 | 52 | 0.9 | 3.5 | 0.00 | 0.00 | 0.00 | 46 | 1017.5 |
| 20260906162926 | 96 | 159 | 0.9 | 2.6 | 0.00 | 0.00 | 0.00 | 43 | 1017.4 |
| 20260906155941 | 95 | 300 | 0.9 | 2.6 | 0.00 | 0.00 | 0.00 | 49 | 1017.3 |
| 20260906155026 | 95 | 52 | 1.7 | 1.7 | 0.00 | 0.00 | 0.00 | 61 | 1017.3 |
| 20260906154026 | 94 | 67 | 0.0 | 0.9 | 0.00 | 0.00 | 0.00 | 65 | 1017.3 |
| 20260906151126 | 89 | 45 | 0.0 | 0.9 | 0.00 | 0.00 | 0.00 | 65 | 1017.2 |
| 20260906145127 | 86 | 45 | 1.7 | 1.7 | 0.00 | 0.00 | 0.00 | 67 | 1017.2 |
| 20260906144127 | 86 | 135 | 0.0 | 0.0 | 0.00 | 0.00 | 0.00 | 69 | 1017.3 |
| 20260906143127 | 85 | 135 | 0.0 | 0.0 | 0.00 | 0.00 | 0.00 | 70 | 1017.2 |
| 20260906142127 | 84 | 135 | 0.0 | 0.0 | 0.00 | 0.00 | 0.00 | 71 | 1017.2 |
| 20260906141225 | 84 | 135 | 0.0 | 0.0 | 0.00 | 0.00 | 0.00 | 72 | 1017.2 |
| 20260906135226 | 82 | 135 | 0.0 | 0.9 | 0.00 | 0.00 | 0.00 | 68 | 1017.4 |
| 20260906133225 | 80 | 135 | 1.7 | 3.5 | 0.00 | 0.00 | 0.00 | 63 | 1017.3 |
| 20260906132324 | 80 | 157 | 0.9 | 2.6 | 0.00 | 0.00 | 0.00 | 65 | 1017.4 |
| 20260906131326 | 78 | 135 | 0.0 | 0.9 | 0.00 | 0.00 | 0.00 | 67 | 1017.4 |
| 20260906130325 | 77 | 135 | 0.0 | 0.9 | 0.00 | 0.00 | 0.00 | 67 | 1017.3 |
| 20260906124426 | 76 | 135 | 0.0 | 0.0 | 0.00 | 0.00 | 0.00 | 67 | 1017.0 |
| 20260906123524 | 76 | 135 | 0.0 | 0.0 | 0.00 | 0.00 | 0.00 | 67 | 1017.2 |
| 20260906121525 | 75 | 135 | 0.0 | 0.0 | 0.00 | 0.00 | 0.00 | 67 | 1016.8 |
| 20260906120526 | 76 | 135 | 0.0 | 0.0 | 0.00 | 0.00 | 0.00 | 66 | 1016.7 |
| 20260906115523 | 76 | 135 | 0.0 | 0.0 | 0.00 | 0.00 | 0.00 | 67 | 1016.6 |
| 20260906114524 | 76 | 135 | 0.0 | 0.0 | 0.00 | 0.00 | 0.00 | 65 | 1016.5 |
| 20260906113523 | 76 | 135 | 0.0 | 0.0 | 0.00 | 0.00 | 0.00 | 65 | 1016.5 |
| 20260906110524 | 77 | 135 | 0.0 | 0.0 | 0.00 | 0.00 | 0.00 | 65 | 1016.1 |
| 20260906105526 | 77 | 135 | 0.0 | 0.0 | 0.00 | 0.00 | 0.00 | 65 | 1016.0 |
| 20260906103625 | 77 | 135 | 0.0 | 0.0 | 0.00 | 0.00 | 0.00 | 65 | 1015.9 |
| 20260906102624 | 77 | 135 | 0.0 | 0.0 | 0.00 | 0.00 | 0.00 | 65 | 1016.0 |
| 20260906101625 | 77 | 135 | 0.0 | 0.0 | 0.00 | 0.00 | 0.00 | 65 | 1015.9 |
| 20260906100624 | 77 | 135 | 0.0 | 0.0 | 0.00 | 0.00 | 0.00 | 65 | 1015.7 |
| 20260906095641 | 77 | 135 | 0.0 | 0.0 | 0.00 | 0.00 | 0.00 | 64 | 1015.6 |
| 20260906094724 | 78 | 135 | 0.0 | 0.0 | 0.00 | 0.00 | 0.00 | 63 | 1015.6 |
| 20260906093725 | 78 | 135 | 0.0 | 0.0 | 0.00 | 0.00 | 0.00 | 63 | 1015.5 |
| 20260906092726 | 78 | 135 | 0.0 | 0.0 | 0.00 | 0.00 | 0.00 | 61 | 1015.6 |
| 20260906091724 | 79 | 135 | 0.0 | 0.0 | 0.00 | 0.00 | 0.00 | 61 | 1015.5 |
| 20260906090726 | 78 | 135 | 0.0 | 0.0 | 0.00 | 0.00 | 0.00 | 61 | 1015.4 |
| 20260906085824 | 79 | 135 | 0.0 | 0.0 | 0.00 | 0.00 | 0.00 | 60 | 1015.2 |
| 20260906084824 | 79 | 135 | 0.0 | 0.0 | 0.00 | 0.00 | 0.00 | 61 | 1015.1 |
| 20260906083826 | 79 | 135 | 0.0 | 0.0 | 0.00 | 0.00 | 0.00 | 60 | 1015.2 |
| 20260906081923 | 79 | 135 | 0.0 | 0.0 | 0.00 | 0.00 | 0.00 | 59 | 1015.3 |
| 20260906080926 | 80 | 135 | 0.0 | 0.0 | 0.00 | 0.00 | 0.00 | 59 | 1015.2 |
| 20260906075024 | 80 | 135 | 0.0 | 0.0 | 0.00 | 0.00 | 0.00 | 58 | 1015.1 |
| 20260906073024 | 81 | 135 | 0.0 | 0.0 | 0.00 | 0.00 | 0.00 | 56 | 1015.2 |
| 20260906072025 | 81 | 292 | 0.0 | 0.0 | 0.00 | 0.00 | 0.00 | 55 | 1015.3 |
| 20260906071024 | 82 | 135 | 0.0 | 0.0 | 0.00 | 0.00 | 0.00 | 55 | 1015.3 |
| 20260906070025 | 82 | 135 | 0.0 | 0.0 | 0.00 | 0.00 | 0.00 | 55 | 1015.1 |
| 20260906065024 | 82 | 135 | 0.0 | 0.0 | 0.00 | 0.00 | 0.00 | 54 | 1015.2 |
| 20260906064025 | 82 | 135 | 0.0 | 0.0 | 0.00 | 0.00 | 0.00 | 54 | 1015.2 |
| 20260906063025 | 83 | 135 | 0.0 | 0.0 | 0.00 | 0.00 | 0.00 | 53 | 1015.4 |
| 20260906062027 | 83 | 135 | 0.0 | 0.0 | 0.00 | 0.00 | 0.00 | 53 | 1015.4 |
| 20260906061024 | 83 | 157 | 0.0 | 0.0 | 0.00 | 0.00 | 0.00 | 52 | 1015.4 |
| 20260906060925 | 83 | 157 | 0.0 | 0.0 | 0.00 | 0.00 | 0.00 | 53 | 1015.3 |
| 20260906055925 | 84 | 157 | 0.0 | 0.0 | 0.00 | 0.00 | 0.00 | 52 | 1015.3 |
| 20260906054926 | 83 | 141 | 0.0 | 0.9 | 0.00 | 0.00 | 0.00 | 52 | 1015.2 |
| 20260906053924 | 84 | 135 | 0.0 | 0.0 | 0.00 | 0.00 | 0.00 | 51 | 1015.3 |
| 20260906052926 | 84 | 133 | 0.0 | 0.0 | 0.00 | 0.00 | 0.00 | 51 | 1015.6 |
| 20260906052024 | 84 | 135 | 1.7 | 2.6 | 0.00 | 0.00 | 0.00 | 50 | 1015.5 |
| 20260906051025 | 84 | 135 | 0.0 | 0.9 | 0.00 | 0.00 | 0.00 | 51 | 1015.5 |
| 20260906050048 | 84 | 146 | 0.0 | 0.9 | 0.00 | 0.00 | 0.00 | 49 | 1015.4 |
| 20260906045030 | 85 | 157 | 0.0 | 0.0 | 0.00 | 0.00 | 0.00 | 49 | 1015.2 |
| 20260906044130 | 85 | 135 | 0.0 | 0.9 | 0.00 | 0.00 | 0.00 | 48 | 1015.5 |
| 20260906043131 | 86 | 135 | 0.0 | 0.0 | 0.00 | 0.00 | 0.00 | 48 | 1015.4 |
| 20260906042130 | 86 | 135 | 0.0 | 0.9 | 0.00 | 0.00 | 0.00 | 48 | 1015.4 |
| 20260906040131 | 86 | 135 | 0.0 | 0.9 | 0.00 | 0.00 | 0.00 | 47 | 1015.4 |
| 20260906035132 | 86 | 135 | 0.0 | 1.7 | 0.00 | 0.00 | 0.00 | 47 | 1015.5 |
| 20260906034130 | 87 | 135 | 0.9 | 2.6 | 0.00 | 0.00 | 0.00 | 47 | 1015.6 |
| 20260906033131 | 87 | 138 | 0.9 | 3.5 | 0.00 | 0.00 | 0.00 | 47 | 1015.6 |
| 20260906032132 | 87 | 135 | 0.0 | 0.9 | 0.00 | 0.00 | 0.00 | 46 | 1015.4 |
| 20260906031129 | 87 | 135 | 1.7 | 3.5 | 0.00 | 0.00 | 0.00 | 47 | 1015.5 |
| 20260906030130 | 88 | 129 | 2.6 | 5.2 | 0.00 | 0.00 | 0.00 | 45 | 1015.4 |
| 20260906025131 | 89 | 135 | 0.9 | 1.7 | 0.00 | 0.00 | 0.00 | 45 | 1015.2 |
| 20260906024129 | 89 | 105 | 0.9 | 3.5 | 0.00 | 0.00 | 0.00 | 45 | 1015.3 |
| 20260906023129 | 89 | 138 | 2.6 | 4.3 | 0.00 | 0.00 | 0.00 | 45 | 1015.0 |
| 20260906021129 | 91 | 150 | 2.6 | 7.8 | 0.00 | 0.00 | 0.00 | 41 | 1014.6 |
| 20260906013230 | 91 | 247 | 0.0 | 0.0 | 0.00 | 0.00 | 0.00 | 38 | 1013.8 |
| 20260906012229 | 91 | 247 | 0.0 | 0.0 | 0.00 | 0.00 | 0.00 | 37 | 1013.8 |
| 20260906011231 | 93 | 247 | 0.0 | 0.0 | 0.00 | 0.00 | 0.00 | 35 | 1013.8 |
| 20260906010329 | 94 | 247 | 0.0 | 0.0 | 0.00 | 0.00 | 0.00 | 34 | 1013.8 |
| 20260906005330 | 95 | 247 | 0.0 | 0.0 | 0.00 | 0.00 | 0.00 | 34 | 1013.8 |
| 20260906004331 | 96 | 247 | 0.0 | 0.0 | 0.00 | 0.00 | 0.00 | 33 | 1013.6 |
| 20260906003329 | 97 | 247 | 0.0 | 0.0 | 0.00 | 0.00 | 0.00 | 31 | 1013.7 |
| 20260906003229 | 97 | 239 | 0.0 | 0.0 | 0.00 | 0.00 | 0.00 | 31 | 1013.6 |
| 20260906002228 | 98 | 135 | 0.0 | 0.0 | 0.00 | 0.00 | 0.00 | 29 | 1013.7 |
| 20260906001231 | 99 | 135 | 0.0 | 0.0 | 0.00 | 0.00 | 0.00 | 29 | 1013.6 |
| 20260906000228 | 99 | 135 | 0.0 | 0.0 | 0.00 | 0.00 | 0.00 | 31 | 1013.5 |
| 20260905235229 | 98 | 141 | 1.7 | 3.5 | 0.00 | 0.00 | 0.00 | 32 | 1013.6 |
| 20260905234229 | 99 | 135 | 0.9 | 1.7 | 0.00 | 0.00 | 0.00 | 36 | 1013.5 |
| 20260905233129 | 100 | 90 | 0.0 | 0.0 | 0.00 | 0.00 | 0.00 | 27 | 1013.3 |
| 20260905232131 | 100 | 90 | 0.0 | 0.0 | 0.00 | 0.00 | 0.00 | 29 | 1013.3 |
| 20260905231131 | 101 | 104 | 0.0 | 0.9 | 0.00 | 0.00 | 0.00 | 34 | 1013.6 |
| 20260905225130 | 101 | 28 | 0.0 | 1.7 | 0.00 | 0.00 | 0.00 | 30 | 1013.4 |
| 20260905224129 | 102 | 39 | 0.9 | 1.7 | 0.00 | 0.00 | 0.00 | 28 | 1013.5 |
| 20260905223228 | 104 | 103 | 0.9 | 2.6 | 0.00 | 0.00 | 0.00 | 30 | 1013.5 |
| 20260905222230 | 105 | 45 | 0.0 | 0.9 | 0.00 | 0.00 | 0.00 | 32 | 1013.5 |
| 20260905222128 | 105 | 45 | 0.9 | 1.7 | 0.00 | 0.00 | 0.00 | 32 | 1013.5 |